Time;durP1;ratioP1;P1;durP2;ratioP2;P2;SDS_P1;SDS_P2;PMS_P1;PMS_P2;Temp;Humidity;BMP_temperature;BMP_pressure;BME280_temperature;BME280_humidity;BME280_pressure;Samples;Min_cycle;Max_cycle;Signal;HPM_P1;HPM_P2
2022/12/16 00:02:24;;;;;;;;;;;;;;;;;;5095599;28;20334;-85
2022/12/16 00:04:49;;;;;;;25.33;13.25;;;;;;;;;;5106354;28;19935;-85
2022/12/16 00:07:14;;;;;;;25.10;13.68;;;;;;;;;;5073062;28;20039;-87
2022/12/16 00:09:39;;;;;;;22.37;11.77;;;;;;;;;;5063048;28;20067;-85
2022/12/16 00:12:04;;;;;;;28.30;14.77;;;;;;;;;;5069663;28;20572;-85
2022/12/16 00:14:30;;;;;;;24.67;13.27;;;;;;;;;;5053354;28;20071;-85
2022/12/16 00:16:55;;;;;;;20.17;11.75;;;;;;;;;;5051532;28;20044;-86
2022/12/16 00:19:20;;;;;;;18.20;12.07;;;;;;;;;;5056772;28;20474;-85
2022/12/16 00:21:45;;;;;;;20.80;11.73;;;;;;;;;;5066331;28;20029;-85
2022/12/16 00:24:11;;;;;;;22.50;12.33;;;;;;;;;;5049989;28;20268;-84
2022/12/16 00:26:36;;;;;;;19.87;11.80;;;;;;;;;;5055190;28;20275;-85
2022/12/16 00:29:04;;;;;;;19.37;11.03;;;;;;;;;;5046146;28;20067;-85
2022/12/16 00:31:29;;;;;;;21.05;11.20;;;;;;;;;;5050097;28;20276;-84
2022/12/16 00:33:55;;;;;;;23.15;13.00;;;;;;;;;;5049960;28;20564;-85
2022/12/16 00:36:20;;;;;;;22.00;13.60;;;;;;;;;;5044686;28;20426;-84
2022/12/16 00:38:45;;;;;;;23.07;14.80;;;;;;;;;;5054722;28;20902;-84
2022/12/16 00:41:10;;;;;;;;;;;;;;;;;;5048907;28;20055;-85
2022/12/16 00:43:36;;;;;;;23.88;12.98;;;;;;;;;;5080156;28;19924;-84
2022/12/16 00:46:01;;;;;;;24.43;12.97;;;;;;;;;;5043152;28;20045;-83
2022/12/16 00:48:26;;;;;;;24.83;12.93;;;;;;;;;;5046630;28;20261;-84
2022/12/16 00:50:51;;;;;;;;;;;;;;;;;;5049726;28;20036;-84
2022/12/16 00:53:16;;;;;;;;;;;;;;;;;;5061256;28;19913;-84
2022/12/16 00:55:42;;;;;;;23.38;11.85;;;;;;;;;;5044185;28;19921;-84
2022/12/16 00:58:07;;;;;;;23.23;14.37;;;;;;;;;;5044069;28;20417;-84
2022/12/16 01:00:32;;;;;;;23.30;13.38;;;;;;;;;;5043992;28;20037;-86
2022/12/16 01:02:57;;;;;;;23.93;12.50;;;;;;;;;;5049206;28;20037;-85
2022/12/16 01:05:25;;;;;;;22.70;11.83;;;;;;;;;;5046525;28;20405;-84
2022/12/16 01:07:51;;;;;;;22.88;11.60;;;;;;;;;;5083112;28;20710;-85
2022/12/16 01:10:16;;;;;;;22.67;11.90;;;;;;;;;;5049750;28;20120;-85
2022/12/16 01:12:41;;;;;;;21.57;12.07;;;;;;;;;;5044686;28;20068;-85
2022/12/16 01:15:08;;;;;;;22.83;12.20;;;;;;;;;;5045758;28;20383;-85
2022/12/16 01:17:34;;;;;;;22.77;12.05;;;;;;;;;;5051688;28;20047;-85
2022/12/16 01:19:59;;;;;;;23.17;12.48;;;;;;;;;;5052654;28;20124;-85
2022/12/16 01:22:25;;;;;;;22.88;12.00;;;;;;;;;;5054701;28;20048;-85
2022/12/16 01:24:50;;;;;;;19.52;10.63;;;;;;;;;;5056350;28;20033;-85
2022/12/16 01:27:16;;;;;;;25.35;12.10;;;;;;;;;;5056179;28;20051;-85
2022/12/16 01:29:41;;;;;;;23.02;12.27;;;;;;;;;;5048904;28;20037;-85
2022/12/16 01:32:07;;;;;;;23.13;12.13;;;;;;;;;;5078141;28;20124;-85
2022/12/16 01:34:33;;;;;;;24.45;13.00;;;;;;;;;;5055361;28;20059;-85
2022/12/16 01:36:58;;;;;;;20.75;13.20;;;;;;;;;;5052690;28;20949;-85
2022/12/16 01:39:25;;;;;;;21.93;12.40;;;;;;;;;;5070889;28;20406;-85
2022/12/16 01:41:50;;;;;;;23.52;11.75;;;;;;;;;;5054919;28;20122;-85
2022/12/16 01:44:20;;;;;;;22.85;12.43;;;;;;;;;;5051148;28;20030;-84
2022/12/16 01:46:49;;;;;;;23.98;12.20;;;;;;;;;;5053932;28;20048;-85
2022/12/16 01:49:23;;;;;;;24.15;12.90;;;;;;;;;;5054308;28;20139;-85
2022/12/16 01:51:49;;;;;;;22.48;11.80;;;;;;;;;;5052351;28;20092;-85
2022/12/16 01:54:17;;;;;;;23.15;11.50;;;;;;;;;;5053451;28;20040;-85
2022/12/16 01:56:52;;;;;;;21.73;11.55;;;;;;;;;;5053875;28;20048;-85
2022/12/16 01:59:19;;;;;;;23.67;11.88;;;;;;;;;;5083888;28;20095;-85
2022/12/16 02:01:44;;;;;;;19.70;10.63;;;;;;;;;;5053752;28;20735;-85
2022/12/16 02:04:09;;;;;;;18.92;10.18;;;;;;;;;;5055475;28;20041;-85
2022/12/16 02:06:34;;;;;;;21.20;11.13;;;;;;;;;;5055265;28;20037;-84
2022/12/16 02:09:01;;;;;;;17.20;11.80;;;;;;;;;;5053676;28;20406;-84
2022/12/16 02:11:44;;;;;;;17.20;10.30;;;;;;;;;;5056723;28;20094;-85
2022/12/16 02:14:30;;;;;;;18.70;10.73;;;;;;;;;;5070239;28;20070;-85
2022/12/16 02:16:59;;;;;;;18.92;10.15;;;;;;;;;;5043107;28;20441;-85
2022/12/16 02:19:43;;;;;;;17.92;9.93;;;;;;;;;;5054314;28;20045;-85
2022/12/16 02:22:21;;;;;;;18.45;9.65;;;;;;;;;;5055400;28;20668;-84
2022/12/16 02:24:57;;;;;;;19.10;10.07;;;;;;;;;;5054318;28;20194;-84
2022/12/16 02:27:39;;;;;;;20.67;11.23;;;;;;;;;;5071961;28;20048;-84
2022/12/16 02:30:07;;;;;;;20.65;11.60;;;;;;;;;;5069817;28;20036;-84
2022/12/16 02:32:40;;;;;;;18.85;10.63;;;;;;;;;;5063306;28;20061;-84
2022/12/16 02:35:23;;;;;;;20.48;11.02;;;;;;;;;;5078880;28;20040;-84
2022/12/16 02:38:04;;;;;;;19.25;10.55;;;;;;;;;;5054587;28;20498;-83
2022/12/16 02:40:50;;;;;;;18.85;10.85;;;;;;;;;;5053544;28;20047;-85
2022/12/16 02:43:21;;;;;;;24.02;11.35;;;;;;;;;;5061731;28;20041;-84
2022/12/16 02:45:46;;;;;;;;;;;;;;;;;;5057466;28;20033;-84
2022/12/16 02:48:11;;;;;;;20.08;10.75;;;;;;;;;;5080374;28;19991;-83
2022/12/16 02:50:43;;;;;;;21.00;10.93;;;;;;;;;;5070792;28;20043;-83
2022/12/16 02:53:08;;;;;;;19.38;9.60;;;;;;;;;;5051550;28;20041;-84
2022/12/16 02:55:54;;;;;;;22.75;11.85;;;;;;;;;;5066306;28;20538;-83
2022/12/16 02:58:31;;;;;;;21.08;10.68;;;;;;;;;;5049896;28;20037;-85
2022/12/16 03:00:59;;;;;;;19.23;11.15;;;;;;;;;;5058092;28;20482;-85
2022/12/16 03:03:36;;;;;;;20.13;9.90;;;;;;;;;;5053678;28;20866;-84
2022/12/16 03:06:02;;;;;;;16.95;9.00;;;;;;;;;;5055075;28;20437;-86
2022/12/16 03:08:35;;;;;;;20.85;11.05;;;;;;;;;;5033100;28;20038;-84
2022/12/16 03:11:02;;;;;;;16.67;9.77;;;;;;;;;;5032329;28;20033;-84
2022/12/16 03:13:41;;;;;;;17.13;8.80;;;;;;;;;;5031857;28;20064;-84
2022/12/16 03:16:08;;;;;;;16.58;9.43;;;;;;;;;;5030293;28;20050;-84
2022/12/16 03:18:34;;;;;;;19.95;10.65;;;;;;;;;;5032822;28;20057;-84
2022/12/16 03:21:02;;;;;;;20.23;10.10;;;;;;;;;;5033790;28;20037;-85
2022/12/16 03:23:34;;;;;;;23.02;11.68;;;;;;;;;;5032538;28;20037;-85
2022/12/16 03:26:06;;;;;;;20.63;10.80;;;;;;;;;;5023076;28;20052;-84
2022/12/16 03:28:52;;;;;;;19.05;10.27;;;;;;;;;;5025684;28;20034;-84
2022/12/16 03:31:33;;;;;;;17.75;9.68;;;;;;;;;;5024463;28;20048;-84
2022/12/16 03:34:11;;;;;;;18.17;9.95;;;;;;;;;;5044847;28;20080;-84
2022/12/16 03:36:38;;;;;;;19.55;10.63;;;;;;;;;;5029160;28;20042;-83
2022/12/16 03:39:05;;;;;;;19.02;10.80;;;;;;;;;;5047042;28;20311;-85
2022/12/16 03:41:31;;;;;;;21.02;11.00;;;;;;;;;;5029924;28;20038;-85
2022/12/16 03:43:57;;;;;;;22.73;11.25;;;;;;;22.39;100.00;159239.13;5065452;28;20055;-85
2022/12/16 03:46:22;;;;;;;24.80;12.45;;;;;;;;;;5034522;28;20690;-84
2022/12/16 03:48:48;;;;;;;21.97;10.97;;;;;;;;;;5033517;28;20052;-84
2022/12/16 03:51:14;;;;;;;24.67;12.10;;;;;;;;;;5038134;28;20288;-84
2022/12/16 03:53:40;;;;;;;20.77;10.75;;;;;;;;;;5035484;28;20034;-84
2022/12/16 03:56:05;;;;;;;20.70;9.80;;;;;;;;;;5038529;28;20057;-84
2022/12/16 03:58:31;;;;;;;19.73;9.70;;;;;;;;;;5038601;28;20037;-84
2022/12/16 04:00:59;;;;;;;20.65;10.48;;;;;;;;;;5035476;28;20048;-84
2022/12/16 04:03:31;;;;;;;19.70;9.80;;;;;;;;;;5039173;28;20040;-84
2022/12/16 04:06:02;;;;;;;16.60;8.85;;;;;;;;;;5047597;28;20037;-84
2022/12/16 04:08:27;;;;;;;;;;;;;;;;;;5038512;28;20038;-84
2022/12/16 04:24:42;;;;;;;21.70;10.32;;;;;;;;;;5037597;28;20045;-84
2022/12/16 04:27:28;;;;;;;18.70;9.57;;;;;;;;;;5055325;28;20037;-84
